sensor_id;sensor_type;location;lat;lon;timestamp;P1;durP1;ratioP1;P2;durP2;ratioP2
54835;SDS011;43486;43.574;1.476;2023-01-30T00:01:26;3.80;;;2.05;;
54835;SDS011;43486;43.574;1.476;2023-01-30T00:03:53;4.40;;;2.20;;
54835;SDS011;43486;43.574;1.476;2023-01-30T00:06:19;5.07;;;2.53;;
54835;SDS011;43486;43.574;1.476;2023-01-30T00:08:45;5.00;;;2.70;;
54835;SDS011;43486;43.574;1.476;2023-01-30T00:11:11;5.22;;;2.33;;
54835;SDS011;43486;43.574;1.476;2023-01-30T00:13:38;3.83;;;2.65;;
54835;SDS011;43486;43.574;1.476;2023-01-30T00:16:04;8.32;;;2.67;;
54835;SDS011;43486;43.574;1.476;2023-01-30T00:18:30;4.70;;;2.50;;
54835;SDS011;43486;43.574;1.476;2023-01-30T00:20:59;4.47;;;2.30;;
54835;SDS011;43486;43.574;1.476;2023-01-30T00:23:25;4.75;;;2.25;;
54835;SDS011;43486;43.574;1.476;2023-01-30T00:25:51;4.28;;;1.92;;
54835;SDS011;43486;43.574;1.476;2023-01-30T00:28:17;5.05;;;2.75;;
54835;SDS011;43486;43.574;1.476;2023-01-30T00:30:42;4.95;;;3.05;;
54835;SDS011;43486;43.574;1.476;2023-01-30T00:33:08;5.53;;;3.10;;
54835;SDS011;43486;43.574;1.476;2023-01-30T00:35:33;5.93;;;2.72;;
54835;SDS011;43486;43.574;1.476;2023-01-30T00:37:59;5.32;;;2.60;;
54835;SDS011;43486;43.574;1.476;2023-01-30T00:40:25;6.78;;;3.05;;
54835;SDS011;43486;43.574;1.476;2023-01-30T00:42:52;5.93;;;2.72;;
54835;SDS011;43486;43.574;1.476;2023-01-30T00:48:20;4.67;;;2.93;;
54835;SDS011;43486;43.574;1.476;2023-01-30T00:50:45;5.22;;;3.10;;
54835;SDS011;43486;43.574;1.476;2023-01-30T00:53:11;5.07;;;2.60;;
54835;SDS011;43486;43.574;1.476;2023-01-30T00:55:38;3.75;;;2.15;;
54835;SDS011;43486;43.574;1.476;2023-01-30T00:58:03;4.88;;;2.30;;
54835;SDS011;43486;43.574;1.476;2023-01-30T01:00:29;7.25;;;2.63;;
54835;SDS011;43486;43.574;1.476;2023-01-30T01:02:54;4.50;;;1.92;;
54835;SDS011;43486;43.574;1.476;2023-01-30T01:05:20;5.80;;;2.42;;
54835;SDS011;43486;43.574;1.476;2023-01-30T01:07:45;9.45;;;3.05;;
54835;SDS011;43486;43.574;1.476;2023-01-30T01:10:11;5.20;;;2.70;;
54835;SDS011;43486;43.574;1.476;2023-01-30T01:12:41;13.02;;;2.30;;
54835;SDS011;43486;43.574;1.476;2023-01-30T01:15:07;4.47;;;2.33;;
54835;SDS011;43486;43.574;1.476;2023-01-30T01:17:33;7.22;;;2.60;;
54835;SDS011;43486;43.574;1.476;2023-01-30T01:19:58;7.60;;;2.85;;
54835;SDS011;43486;43.574;1.476;2023-01-30T01:22:24;7.07;;;3.25;;
54835;SDS011;43486;43.574;1.476;2023-01-30T01:24:49;3.95;;;2.35;;
54835;SDS011;43486;43.574;1.476;2023-01-30T01:27:15;4.10;;;2.58;;
54835;SDS011;43486;43.574;1.476;2023-01-30T01:29:40;4.72;;;2.58;;
54835;SDS011;43486;43.574;1.476;2023-01-30T01:32:05;6.32;;;2.67;;
54835;SDS011;43486;43.574;1.476;2023-01-30T01:34:31;4.93;;;2.58;;
54835;SDS011;43486;43.574;1.476;2023-01-30T01:36:56;6.55;;;2.80;;
54835;SDS011;43486;43.574;1.476;2023-01-30T01:39:22;4.55;;;2.83;;
54835;SDS011;43486;43.574;1.476;2023-01-30T01:41:47;5.13;;;2.63;;
54835;SDS011;43486;43.574;1.476;2023-01-30T01:44:13;12.23;;;3.63;;
54835;SDS011;43486;43.574;1.476;2023-01-30T01:46:41;3.53;;;2.15;;
54835;SDS011;43486;43.574;1.476;2023-01-30T01:52:06;5.55;;;2.75;;
54835;SDS011;43486;43.574;1.476;2023-01-30T01:54:47;3.55;;;2.20;;
54835;SDS011;43486;43.574;1.476;2023-01-30T01:57:17;4.38;;;2.40;;
54835;SDS011;43486;43.574;1.476;2023-01-30T01:59:51;5.38;;;2.72;;
54835;SDS011;43486;43.574;1.476;2023-01-30T02:02:29;5.57;;;2.28;;
54835;SDS011;43486;43.574;1.476;2023-01-30T02:04:56;5.93;;;2.47;;
54835;SDS011;43486;43.574;1.476;2023-01-30T02:13:18;6.07;;;3.03;;
54835;SDS011;43486;43.574;1.476;2023-01-30T02:15:44;5.30;;;2.50;;
54835;SDS011;43486;43.574;1.476;2023-01-30T02:18:09;5.10;;;2.83;;
54835;SDS011;43486;43.574;1.476;2023-01-30T02:23:22;7.20;;;3.25;;
54835;SDS011;43486;43.574;1.476;2023-01-30T02:28:59;5.25;;;2.72;;
54835;SDS011;43486;43.574;1.476;2023-01-30T02:34:07;4.78;;;2.25;;
54835;SDS011;43486;43.574;1.476;2023-01-30T02:42:28;5.97;;;3.05;;
54835;SDS011;43486;43.574;1.476;2023-01-30T02:45:01;5.57;;;3.25;;
54835;SDS011;43486;43.574;1.476;2023-01-30T02:47:35;3.33;;;1.67;;
54835;SDS011;43486;43.574;1.476;2023-01-30T02:50:07;7.68;;;3.15;;
54835;SDS011;43486;43.574;1.476;2023-01-30T02:52:36;4.83;;;3.00;;
54835;SDS011;43486;43.574;1.476;2023-01-30T02:55:16;5.95;;;2.78;;
54835;SDS011;43486;43.574;1.476;2023-01-30T02:57:44;5.13;;;2.83;;
54835;SDS011;43486;43.574;1.476;2023-01-30T03:00:09;6.38;;;3.10;;
54835;SDS011;43486;43.574;1.476;2023-01-30T03:08:06;6.05;;;2.88;;
54835;SDS011;43486;43.574;1.476;2023-01-30T03:10:35;6.65;;;3.13;;
54835;SDS011;43486;43.574;1.476;2023-01-30T03:13:07;5.05;;;2.50;;
54835;SDS011;43486;43.574;1.476;2023-01-30T03:15:37;5.03;;;2.50;;
54835;SDS011;43486;43.574;1.476;2023-01-30T03:18:07;4.80;;;2.20;;
54835;SDS011;43486;43.574;1.476;2023-01-30T03:20:36;5.35;;;2.15;;
54835;SDS011;43486;43.574;1.476;2023-01-30T03:23:03;4.22;;;2.08;;
54835;SDS011;43486;43.574;1.476;2023-01-30T03:25:28;3.80;;;2.47;;
54835;SDS011;43486;43.574;1.476;2023-01-30T03:27:54;4.53;;;2.70;;
54835;SDS011;43486;43.574;1.476;2023-01-30T03:30:20;4.53;;;2.70;;
54835;SDS011;43486;43.574;1.476;2023-01-30T03:32:46;4.40;;;2.55;;
54835;SDS011;43486;43.574;1.476;2023-01-30T03:35:11;4.72;;;2.20;;
54835;SDS011;43486;43.574;1.476;2023-01-30T03:37:36;5.35;;;3.53;;
54835;SDS011;43486;43.574;1.476;2023-01-30T03:40:02;5.40;;;2.13;;
54835;SDS011;43486;43.574;1.476;2023-01-30T03:42:28;5.00;;;2.35;;
54835;SDS011;43486;43.574;1.476;2023-01-30T03:44:54;4.38;;;2.55;;
54835;SDS011;43486;43.574;1.476;2023-01-30T03:47:19;6.43;;;3.08;;
54835;SDS011;43486;43.574;1.476;2023-01-30T03:49:45;5.03;;;2.38;;
54835;SDS011;43486;43.574;1.476;2023-01-30T03:52:10;4.18;;;2.65;;
54835;SDS011;43486;43.574;1.476;2023-01-30T03:54:35;3.47;;;2.30;;
54835;SDS011;43486;43.574;1.476;2023-01-30T03:57:01;3.28;;;1.90;;
54835;SDS011;43486;43.574;1.476;2023-01-30T03:59:26;4.78;;;2.78;;
54835;SDS011;43486;43.574;1.476;2023-01-30T04:01:52;4.40;;;2.40;;
54835;SDS011;43486;43.574;1.476;2023-01-30T04:04:17;4.72;;;2.40;;
54835;SDS011;43486;43.574;1.476;2023-01-30T04:06:43;4.28;;;1.90;;
54835;SDS011;43486;43.574;1.476;2023-01-30T04:09:08;4.43;;;2.58;;
54835;SDS011;43486;43.574;1.476;2023-01-30T04:11:33;4.40;;;1.98;;
54835;SDS011;43486;43.574;1.476;2023-01-30T04:13:59;5.28;;;2.75;;
54835;SDS011;43486;43.574;1.476;2023-01-30T04:16:25;4.07;;;2.08;;
54835;SDS011;43486;43.574;1.476;2023-01-30T04:18:51;4.65;;;2.35;;
54835;SDS011;43486;43.574;1.476;2023-01-30T04:21:17;3.17;;;1.90;;
54835;SDS011;43486;43.574;1.476;2023-01-30T04:23:42;3.85;;;2.03;;
54835;SDS011;43486;43.574;1.476;2023-01-30T04:26:08;3.72;;;1.90;;
54835;SDS011;43486;43.574;1.476;2023-01-30T04:28:33;3.65;;;2.05;;
54835;SDS011;43486;43.574;1.476;2023-01-30T04:30:59;2.97;;;2.08;;
54835;SDS011;43486;43.574;1.476;2023-01-30T04:33:25;4.93;;;2.17;;
54835;SDS011;43486;43.574;1.476;2023-01-30T04:35:53;4.43;;;2.50;;
54835;SDS011;43486;43.574;1.476;2023-01-30T04:38:21;5.47;;;2.33;;
54835;SDS011;43486;43.574;1.476;2023-01-30T04:40:48;5.97;;;2.22;;
54835;SDS011;43486;43.574;1.476;2023-01-30T04:43:14;4.68;;;2.13;;
54835;SDS011;43486;43.574;1.476;2023-01-30T04:45:43;5.68;;;2.90;;
54835;SDS011;43486;43.574;1.476;2023-01-30T04:48:09;4.03;;;2.25;;
54835;SDS011;43486;43.574;1.476;2023-01-30T04:50:34;4.82;;;1.90;;
54835;SDS011;43486;43.574;1.476;2023-01-30T04:53:00;4.13;;;1.95;;
54835;SDS011;43486;43.574;1.476;2023-01-30T04:55:25;3.25;;;1.83;;
54835;SDS011;43486;43.574;1.476;2023-01-30T04:57:51;3.10;;;1.65;;
54835;SDS011;43486;43.574;1.476;2023-01-30T05:00:16;4.03;;;2.13;;
54835;SDS011;43486;43.574;1.476;2023-01-30T05:02:42;2.55;;;1.63;;
54835;SDS011;43486;43.574;1.476;2023-01-30T05:05:07;4.85;;;2.30;;
54835;SDS011;43486;43.574;1.476;2023-01-30T05:07:33;4.03;;;2.28;;
54835;SDS011;43486;43.574;1.476;2023-01-30T05:09:58;2.97;;;1.58;;
54835;SDS011;43486;43.574;1.476;2023-01-30T05:12:24;3.63;;;1.58;;
54835;SDS011;43486;43.574;1.476;2023-01-30T05:14:49;2.53;;;1.70;;
54835;SDS011;43486;43.574;1.476;2023-01-30T05:17:14;5.07;;;2.05;;
54835;SDS011;43486;43.574;1.476;2023-01-30T05:19:40;4.00;;;1.90;;
54835;SDS011;43486;43.574;1.476;2023-01-30T05:22:05;4.50;;;2.33;;
54835;SDS011;43486;43.574;1.476;2023-01-30T05:24:31;2.45;;;1.67;;
54835;SDS011;43486;43.574;1.476;2023-01-30T05:26:56;3.60;;;1.83;;
54835;SDS011;43486;43.574;1.476;2023-01-30T05:29:21;4.38;;;2.33;;
54835;SDS011;43486;43.574;1.476;2023-01-30T05:31:47;3.40;;;1.98;;
54835;SDS011;43486;43.574;1.476;2023-01-30T05:34:12;3.47;;;2.05;;
54835;SDS011;43486;43.574;1.476;2023-01-30T05:36:37;3.70;;;1.95;;
54835;SDS011;43486;43.574;1.476;2023-01-30T05:39:03;6.80;;;2.45;;
54835;SDS011;43486;43.574;1.476;2023-01-30T05:41:28;2.42;;;1.42;;
54835;SDS011;43486;43.574;1.476;2023-01-30T05:43:54;3.53;;;1.65;;
54835;SDS011;43486;43.574;1.476;2023-01-30T05:46:19;2.60;;;1.77;;
54835;SDS011;43486;43.574;1.476;2023-01-30T05:48:45;2.92;;;1.65;;
54835;SDS011;43486;43.574;1.476;2023-01-30T05:51:17;4.30;;;2.38;;
54835;SDS011;43486;43.574;1.476;2023-01-30T05:53:44;4.55;;;2.08;;
54835;SDS011;43486;43.574;1.476;2023-01-30T05:56:09;4.72;;;1.63;;
54835;SDS011;43486;43.574;1.476;2023-01-30T05:58:35;3.45;;;2.03;;
54835;SDS011;43486;43.574;1.476;2023-01-30T06:01:04;4.32;;;2.20;;
54835;SDS011;43486;43.574;1.476;2023-01-30T06:03:33;3.03;;;1.70;;
54835;SDS011;43486;43.574;1.476;2023-01-30T06:06:00;2.72;;;1.67;;
54835;SDS011;43486;43.574;1.476;2023-01-30T06:08:26;2.53;;;1.35;;
54835;SDS011;43486;43.574;1.476;2023-01-30T06:10:52;3.63;;;1.83;;
54835;SDS011;43486;43.574;1.476;2023-01-30T06:13:17;3.58;;;1.85;;
54835;SDS011;43486;43.574;1.476;2023-01-30T06:15:42;2.60;;;1.50;;
54835;SDS011;43486;43.574;1.476;2023-01-30T06:18:08;3.22;;;1.67;;
54835;SDS011;43486;43.574;1.476;2023-01-30T06:20:33;2.85;;;1.40;;
54835;SDS011;43486;43.574;1.476;2023-01-30T06:22:59;3.55;;;1.77;;
54835;SDS011;43486;43.574;1.476;2023-01-30T06:25:24;3.80;;;2.08;;
54835;SDS011;43486;43.574;1.476;2023-01-30T06:27:50;3.65;;;2.17;;
54835;SDS011;43486;43.574;1.476;2023-01-30T06:30:15;3.35;;;1.77;;
54835;SDS011;43486;43.574;1.476;2023-01-30T06:32:40;3.10;;;1.55;;
54835;SDS011;43486;43.574;1.476;2023-01-30T06:35:06;3.85;;;1.75;;
54835;SDS011;43486;43.574;1.476;2023-01-30T06:37:32;4.20;;;1.80;;
54835;SDS011;43486;43.574;1.476;2023-01-30T06:39:58;1.55;;;1.17;;
54835;SDS011;43486;43.574;1.476;2023-01-30T06:42:23;2.28;;;1.45;;
54835;SDS011;43486;43.574;1.476;2023-01-30T06:44:48;4.35;;;2.50;;
54835;SDS011;43486;43.574;1.476;2023-01-30T06:47:14;3.17;;;1.80;;
54835;SDS011;43486;43.574;1.476;2023-01-30T06:49:39;3.35;;;1.58;;
54835;SDS011;43486;43.574;1.476;2023-01-30T06:52:04;5.43;;;2.17;;
54835;SDS011;43486;43.574;1.476;2023-01-30T06:54:30;5.38;;;2.10;;
54835;SDS011;43486;43.574;1.476;2023-01-30T06:56:55;3.85;;;2.40;;
54835;SDS011;43486;43.574;1.476;2023-01-30T06:59:21;4.00;;;1.85;;
54835;SDS011;43486;43.574;1.476;2023-01-30T07:01:47;2.00;;;1.35;;
54835;SDS011;43486;43.574;1.476;2023-01-30T07:04:12;2.90;;;1.52;;
54835;SDS011;43486;43.574;1.476;2023-01-30T07:06:37;6.47;;;2.00;;
54835;SDS011;43486;43.574;1.476;2023-01-30T07:09:03;2.88;;;1.70;;
54835;SDS011;43486;43.574;1.476;2023-01-30T07:11:28;4.53;;;2.20;;
54835;SDS011;43486;43.574;1.476;2023-01-30T07:13:55;4.30;;;1.95;;
54835;SDS011;43486;43.574;1.476;2023-01-30T07:16:20;3.47;;;1.85;;
54835;SDS011;43486;43.574;1.476;2023-01-30T07:18:52;1.77;;;1.40;;
54835;SDS011;43486;43.574;1.476;2023-01-30T07:21:17;4.68;;;1.73;;
54835;SDS011;43486;43.574;1.476;2023-01-30T07:23:45;2.80;;;1.48;;
54835;SDS011;43486;43.574;1.476;2023-01-30T07:26:10;4.45;;;2.20;;
54835;SDS011;43486;43.574;1.476;2023-01-30T07:28:36;6.72;;;1.85;;
54835;SDS011;43486;43.574;1.476;2023-01-30T07:31:01;3.15;;;1.92;;
54835;SDS011;43486;43.574;1.476;2023-01-30T07:33:27;3.70;;;1.92;;
54835;SDS011;43486;43.574;1.476;2023-01-30T07:35:53;4.00;;;1.75;;
54835;SDS011;43486;43.574;1.476;2023-01-30T07:38:19;3.58;;;1.60;;
54835;SDS011;43486;43.574;1.476;2023-01-30T07:40:44;3.40;;;1.90;;
54835;SDS011;43486;43.574;1.476;2023-01-30T07:43:13;4.80;;;1.63;;
54835;SDS011;43486;43.574;1.476;2023-01-30T07:48:05;7.93;;;1.45;;
54835;SDS011;43486;43.574;1.476;2023-01-30T07:50:32;5.07;;;2.42;;
54835;SDS011;43486;43.574;1.476;2023-01-30T07:52:57;3.97;;;2.05;;
54835;SDS011;43486;43.574;1.476;2023-01-30T07:55:23;2.17;;;1.58;;
54835;SDS011;43486;43.574;1.476;2023-01-30T07:57:48;2.67;;;1.85;;
54835;SDS011;43486;43.574;1.476;2023-01-30T08:00:14;2.28;;;1.08;;
54835;SDS011;43486;43.574;1.476;2023-01-30T08:02:40;2.33;;;1.52;;
54835;SDS011;43486;43.574;1.476;2023-01-30T08:05:05;3.67;;;1.83;;
54835;SDS011;43486;43.574;1.476;2023-01-30T08:07:31;3.28;;;1.80;;
54835;SDS011;43486;43.574;1.476;2023-01-30T08:09:56;1.88;;;1.25;;
54835;SDS011;43486;43.574;1.476;2023-01-30T08:12:22;3.25;;;1.75;;
54835;SDS011;43486;43.574;1.476;2023-01-30T08:14:47;3.60;;;1.98;;
54835;SDS011;43486;43.574;1.476;2023-01-30T08:17:12;6.70;;;2.08;;
54835;SDS011;43486;43.574;1.476;2023-01-30T08:19:38;2.75;;;1.50;;
54835;SDS011;43486;43.574;1.476;2023-01-30T08:22:03;7.68;;;2.15;;
54835;SDS011;43486;43.574;1.476;2023-01-30T08:24:29;3.05;;;1.70;;
54835;SDS011;43486;43.574;1.476;2023-01-30T08:26:54;3.75;;;1.80;;
54835;SDS011;43486;43.574;1.476;2023-01-30T08:29:20;3.13;;;1.85;;
54835;SDS011;43486;43.574;1.476;2023-01-30T08:31:45;2.63;;;1.42;;
54835;SDS011;43486;43.574;1.476;2023-01-30T08:34:10;2.90;;;1.60;;
54835;SDS011;43486;43.574;1.476;2023-01-30T08:36:36;2.90;;;1.45;;
54835;SDS011;43486;43.574;1.476;2023-01-30T08:39:01;4.80;;;1.73;;
54835;SDS011;43486;43.574;1.476;2023-01-30T08:41:26;1.90;;;1.17;;
54835;SDS011;43486;43.574;1.476;2023-01-30T08:43:52;2.33;;;1.33;;
54835;SDS011;43486;43.574;1.476;2023-01-30T08:46:18;4.47;;;2.08;;
54835;SDS011;43486;43.574;1.476;2023-01-30T08:48:45;2.75;;;1.60;;
54835;SDS011;43486;43.574;1.476;2023-01-30T08:51:11;3.22;;;1.73;;
54835;SDS011;43486;43.574;1.476;2023-01-30T08:53:37;2.22;;;1.40;;
54835;SDS011;43486;43.574;1.476;2023-01-30T08:56:02;2.55;;;1.35;;
54835;SDS011;43486;43.574;1.476;2023-01-30T08:58:27;5.10;;;2.25;;
54835;SDS011;43486;43.574;1.476;2023-01-30T09:00:53;2.72;;;1.60;;
54835;SDS011;43486;43.574;1.476;2023-01-30T09:03:18;5.18;;;1.35;;
54835;SDS011;43486;43.574;1.476;2023-01-30T09:05:44;2.67;;;1.67;;
54835;SDS011;43486;43.574;1.476;2023-01-30T09:08:10;2.15;;;1.55;;
54835;SDS011;43486;43.574;1.476;2023-01-30T09:10:35;3.38;;;2.20;;
54835;SDS011;43486;43.574;1.476;2023-01-30T09:13:01;3.10;;;1.58;;
54835;SDS011;43486;43.574;1.476;2023-01-30T09:15:26;5.63;;;2.00;;
54835;SDS011;43486;43.574;1.476;2023-01-30T09:17:51;3.28;;;1.60;;
54835;SDS011;43486;43.574;1.476;2023-01-30T09:20:17;4.15;;;2.33;;
54835;SDS011;43486;43.574;1.476;2023-01-30T09:22:44;7.40;;;1.83;;
54835;SDS011;43486;43.574;1.476;2023-01-30T09:25:10;6.28;;;2.85;;
54835;SDS011;43486;43.574;1.476;2023-01-30T09:27:35;2.88;;;1.50;;
54835;SDS011;43486;43.574;1.476;2023-01-30T09:30:01;2.38;;;1.33;;
54835;SDS011;43486;43.574;1.476;2023-01-30T09:32:27;3.90;;;1.90;;
54835;SDS011;43486;43.574;1.476;2023-01-30T09:34:52;2.92;;;1.48;;
54835;SDS011;43486;43.574;1.476;2023-01-30T09:37:18;4.07;;;1.63;;
54835;SDS011;43486;43.574;1.476;2023-01-30T09:39:43;6.82;;;2.70;;
54835;SDS011;43486;43.574;1.476;2023-01-30T09:42:14;3.88;;;2.00;;
54835;SDS011;43486;43.574;1.476;2023-01-30T09:44:49;2.70;;;1.50;;
54835;SDS011;43486;43.574;1.476;2023-01-30T09:52:59;3.42;;;1.48;;
54835;SDS011;43486;43.574;1.476;2023-01-30T09:55:31;2.00;;;1.35;;
54835;SDS011;43486;43.574;1.476;2023-01-30T09:57:58;3.60;;;1.83;;
54835;SDS011;43486;43.574;1.476;2023-01-30T10:00:37;4.30;;;1.75;;
54835;SDS011;43486;43.574;1.476;2023-01-30T10:05:43;6.20;;;2.22;;
54835;SDS011;43486;43.574;1.476;2023-01-30T10:10:56;4.32;;;1.77;;
54835;SDS011;43486;43.574;1.476;2023-01-30T10:24:18;2.45;;;1.45;;
54835;SDS011;43486;43.574;1.476;2023-01-30T10:27:00;4.50;;;2.00;;
54835;SDS011;43486;43.574;1.476;2023-01-30T10:29:30;3.17;;;1.90;;
54835;SDS011;43486;43.574;1.476;2023-01-30T10:32:08;3.45;;;1.83;;
54835;SDS011;43486;43.574;1.476;2023-01-30T10:34:55;3.33;;;1.67;;
54835;SDS011;43486;43.574;1.476;2023-01-30T10:37:28;2.60;;;1.40;;
54835;SDS011;43486;43.574;1.476;2023-01-30T10:40:57;4.50;;;2.10;;
54835;SDS011;43486;43.574;1.476;2023-01-30T10:53:49;5.03;;;3.30;;
54835;SDS011;43486;43.574;1.476;2023-01-30T10:56:32;2.42;;;1.48;;
54835;SDS011;43486;43.574;1.476;2023-01-30T10:59:12;4.47;;;1.90;;
54835;SDS011;43486;43.574;1.476;2023-01-30T11:04:25;3.65;;;1.50;;
54835;SDS011;43486;43.574;1.476;2023-01-30T11:06:55;8.23;;;2.42;;
54835;SDS011;43486;43.574;1.476;2023-01-30T11:09:21;3.42;;;2.25;;
54835;SDS011;43486;43.574;1.476;2023-01-30T11:11:48;3.33;;;1.70;;
54835;SDS011;43486;43.574;1.476;2023-01-30T11:14:15;3.53;;;1.90;;
54835;SDS011;43486;43.574;1.476;2023-01-30T11:19:13;3.38;;;1.75;;
54835;SDS011;43486;43.574;1.476;2023-01-30T11:21:40;4.72;;;2.05;;
54835;SDS011;43486;43.574;1.476;2023-01-30T11:24:15;3.75;;;2.00;;
54835;SDS011;43486;43.574;1.476;2023-01-30T11:26:45;5.45;;;2.30;;
54835;SDS011;43486;43.574;1.476;2023-01-30T11:29:23;5.15;;;2.67;;
54835;SDS011;43486;43.574;1.476;2023-01-30T11:31:50;2.35;;;1.42;;
54835;SDS011;43486;43.574;1.476;2023-01-30T11:34:17;5.10;;;2.97;;
54835;SDS011;43486;43.574;1.476;2023-01-30T11:36:45;4.18;;;2.20;;
54835;SDS011;43486;43.574;1.476;2023-01-30T11:41:40;4.65;;;2.22;;
54835;SDS011;43486;43.574;1.476;2023-01-30T11:44:10;3.83;;;1.55;;
54835;SDS011;43486;43.574;1.476;2023-01-30T11:46:36;2.85;;;1.55;;
54835;SDS011;43486;43.574;1.476;2023-01-30T11:49:04;4.47;;;1.92;;
54835;SDS011;43486;43.574;1.476;2023-01-30T11:51:35;3.70;;;2.15;;
54835;SDS011;43486;43.574;1.476;2023-01-30T11:54:05;3.63;;;1.92;;
54835;SDS011;43486;43.574;1.476;2023-01-30T11:59:06;3.80;;;2.13;;
54835;SDS011;43486;43.574;1.476;2023-01-30T12:01:42;4.22;;;2.13;;
54835;SDS011;43486;43.574;1.476;2023-01-30T12:04:08;4.93;;;2.13;;
54835;SDS011;43486;43.574;1.476;2023-01-30T12:06:37;4.95;;;2.38;;
54835;SDS011;43486;43.574;1.476;2023-01-30T12:09:04;4.90;;;2.60;;
54835;SDS011;43486;43.574;1.476;2023-01-30T12:16:45;3.13;;;1.48;;
54835;SDS011;43486;43.574;1.476;2023-01-30T12:19:43;4.28;;;2.03;;
54835;SDS011;43486;43.574;1.476;2023-01-30T12:25:21;17.30;;;13.52;;
54835;SDS011;43486;43.574;1.476;2023-01-30T12:28:03;19.60;;;13.30;;
54835;SDS011;43486;43.574;1.476;2023-01-30T12:30:50;41.10;;;26.67;;
54835;SDS011;43486;43.574;1.476;2023-01-30T12:33:20;37.92;;;24.48;;
54835;SDS011;43486;43.574;1.476;2023-01-30T12:39:00;36.65;;;20.08;;
54835;SDS011;43486;43.574;1.476;2023-01-30T12:46:51;26.83;;;17.80;;
54835;SDS011;43486;43.574;1.476;2023-01-30T12:54:53;25.83;;;15.55;;
54835;SDS011;43486;43.574;1.476;2023-01-30T13:00:08;24.75;;;14.48;;
54835;SDS011;43486;43.574;1.476;2023-01-30T13:07:54;24.85;;;11.50;;
54835;SDS011;43486;43.574;1.476;2023-01-30T13:10:30;19.40;;;12.75;;
54835;SDS011;43486;43.574;1.476;2023-01-30T13:15:36;26.95;;;11.77;;
54835;SDS011;43486;43.574;1.476;2023-01-30T13:18:17;19.63;;;11.23;;
54835;SDS011;43486;43.574;1.476;2023-01-30T13:21:07;13.35;;;9.43;;
54835;SDS011;43486;43.574;1.476;2023-01-30T13:26:43;21.75;;;10.35;;
54835;SDS011;43486;43.574;1.476;2023-01-30T13:29:19;18.33;;;10.57;;
54835;SDS011;43486;43.574;1.476;2023-01-30T13:31:51;19.75;;;10.63;;
54835;SDS011;43486;43.574;1.476;2023-01-30T13:39:42;14.75;;;9.05;;
54835;SDS011;43486;43.574;1.476;2023-01-30T13:42:24;14.50;;;8.20;;
54835;SDS011;43486;43.574;1.476;2023-01-30T13:44:50;19.35;;;10.93;;
54835;SDS011;43486;43.574;1.476;2023-01-30T13:47:30;13.05;;;7.78;;
54835;SDS011;43486;43.574;1.476;2023-01-30T13:53:03;15.60;;;9.15;;
54835;SDS011;43486;43.574;1.476;2023-01-30T13:58:37;12.05;;;8.05;;
54835;SDS011;43486;43.574;1.476;2023-01-30T14:01:11;11.32;;;7.43;;
54835;SDS011;43486;43.574;1.476;2023-01-30T14:03:41;12.15;;;7.70;;
54835;SDS011;43486;43.574;1.476;2023-01-30T14:08:56;12.75;;;6.75;;
54835;SDS011;43486;43.574;1.476;2023-01-30T14:14:25;10.52;;;6.95;;
54835;SDS011;43486;43.574;1.476;2023-01-30T14:16:53;12.02;;;7.57;;
54835;SDS011;43486;43.574;1.476;2023-01-30T14:22:03;12.77;;;6.90;;
54835;SDS011;43486;43.574;1.476;2023-01-30T14:24:41;11.93;;;6.75;;
54835;SDS011;43486;43.574;1.476;2023-01-30T14:27:23;13.75;;;6.43;;
54835;SDS011;43486;43.574;1.476;2023-01-30T14:29:55;13.40;;;6.85;;
54835;SDS011;43486;43.574;1.476;2023-01-30T14:34:47;9.85;;;6.20;;
54835;SDS011;43486;43.574;1.476;2023-01-30T14:40:48;11.18;;;7.28;;
54835;SDS011;43486;43.574;1.476;2023-01-30T14:53:35;13.45;;;5.65;;
54835;SDS011;43486;43.574;1.476;2023-01-30T14:56:02;8.75;;;4.90;;
54835;SDS011;43486;43.574;1.476;2023-01-30T14:58:28;9.93;;;5.47;;
54835;SDS011;43486;43.574;1.476;2023-01-30T15:00:57;10.25;;;5.70;;
54835;SDS011;43486;43.574;1.476;2023-01-30T15:03:24;10.10;;;5.47;;
54835;SDS011;43486;43.574;1.476;2023-01-30T15:05:49;10.88;;;4.57;;
54835;SDS011;43486;43.574;1.476;2023-01-30T15:08:17;10.10;;;4.68;;
54835;SDS011;43486;43.574;1.476;2023-01-30T15:19:30;7.97;;;4.22;;
54835;SDS011;43486;43.574;1.476;2023-01-30T15:28:00;9.50;;;6.40;;
54835;SDS011;43486;43.574;1.476;2023-01-30T15:30:39;7.85;;;4.95;;
54835;SDS011;43486;43.574;1.476;2023-01-30T15:33:22;7.95;;;4.40;;
54835;SDS011;43486;43.574;1.476;2023-01-30T15:35:48;8.38;;;4.70;;
54835;SDS011;43486;43.574;1.476;2023-01-30T15:38:32;8.07;;;4.70;;
54835;SDS011;43486;43.574;1.476;2023-01-30T15:40:59;8.70;;;4.10;;
54835;SDS011;43486;43.574;1.476;2023-01-30T15:46:09;10.27;;;4.88;;
54835;SDS011;43486;43.574;1.476;2023-01-30T15:48:53;9.85;;;5.03;;
54835;SDS011;43486;43.574;1.476;2023-01-30T15:51:26;6.20;;;4.15;;
54835;SDS011;43486;43.574;1.476;2023-01-30T15:53:54;11.02;;;5.38;;
54835;SDS011;43486;43.574;1.476;2023-01-30T15:56:21;9.00;;;4.88;;
54835;SDS011;43486;43.574;1.476;2023-01-30T15:58:49;7.35;;;4.35;;
54835;SDS011;43486;43.574;1.476;2023-01-30T16:01:18;7.43;;;3.72;;
54835;SDS011;43486;43.574;1.476;2023-01-30T16:03:44;7.00;;;3.92;;
54835;SDS011;43486;43.574;1.476;2023-01-30T16:06:20;6.90;;;4.35;;
54835;SDS011;43486;43.574;1.476;2023-01-30T16:08:59;6.00;;;3.50;;
54835;SDS011;43486;43.574;1.476;2023-01-30T16:11:35;10.50;;;3.88;;
54835;SDS011;43486;43.574;1.476;2023-01-30T16:14:02;8.15;;;3.63;;
54835;SDS011;43486;43.574;1.476;2023-01-30T16:16:28;6.78;;;3.47;;
54835;SDS011;43486;43.574;1.476;2023-01-30T16:18:55;7.53;;;4.30;;
54835;SDS011;43486;43.574;1.476;2023-01-30T16:21:25;11.15;;;4.25;;
54835;SDS011;43486;43.574;1.476;2023-01-30T16:26:28;10.68;;;4.82;;
54835;SDS011;43486;43.574;1.476;2023-01-30T16:29:00;14.00;;;4.55;;
54835;SDS011;43486;43.574;1.476;2023-01-30T16:31:31;7.15;;;3.92;;
54835;SDS011;43486;43.574;1.476;2023-01-30T16:33:58;7.90;;;3.92;;
54835;SDS011;43486;43.574;1.476;2023-01-30T16:38:49;7.45;;;3.63;;
54835;SDS011;43486;43.574;1.476;2023-01-30T16:44:10;7.93;;;3.30;;
54835;SDS011;43486;43.574;1.476;2023-01-30T16:49:23;6.68;;;3.90;;
54835;SDS011;43486;43.574;1.476;2023-01-30T16:51:49;8.20;;;3.83;;
54835;SDS011;43486;43.574;1.476;2023-01-30T16:54:43;7.60;;;3.75;;
54835;SDS011;43486;43.574;1.476;2023-01-30T16:57:22;6.63;;;3.60;;
54835;SDS011;43486;43.574;1.476;2023-01-30T16:59:49;9.70;;;3.25;;
54835;SDS011;43486;43.574;1.476;2023-01-30T17:02:27;7.38;;;4.32;;
54835;SDS011;43486;43.574;1.476;2023-01-30T17:05:09;5.57;;;2.97;;
54835;SDS011;43486;43.574;1.476;2023-01-30T17:07:43;12.20;;;3.72;;
54835;SDS011;43486;43.574;1.476;2023-01-30T17:12:55;8.05;;;3.80;;
54835;SDS011;43486;43.574;1.476;2023-01-30T17:15:25;12.38;;;3.38;;
54835;SDS011;43486;43.574;1.476;2023-01-30T17:17:53;6.07;;;3.05;;
54835;SDS011;43486;43.574;1.476;2023-01-30T17:20:18;6.47;;;3.63;;
54835;SDS011;43486;43.574;1.476;2023-01-30T17:22:44;6.80;;;3.90;;
54835;SDS011;43486;43.574;1.476;2023-01-30T17:25:19;6.82;;;3.63;;
54835;SDS011;43486;43.574;1.476;2023-01-30T17:27:48;5.53;;;2.97;;
54835;SDS011;43486;43.574;1.476;2023-01-30T17:30:14;7.18;;;3.08;;
54835;SDS011;43486;43.574;1.476;2023-01-30T17:32:40;7.00;;;2.85;;
54835;SDS011;43486;43.574;1.476;2023-01-30T17:35:05;6.15;;;3.45;;
54835;SDS011;43486;43.574;1.476;2023-01-30T17:37:31;6.18;;;2.88;;
54835;SDS011;43486;43.574;1.476;2023-01-30T17:39:59;5.93;;;2.63;;
54835;SDS011;43486;43.574;1.476;2023-01-30T17:42:24;8.07;;;5.45;;
54835;SDS011;43486;43.574;1.476;2023-01-30T17:44:50;7.75;;;4.72;;
54835;SDS011;43486;43.574;1.476;2023-01-30T17:47:16;9.68;;;3.92;;
54835;SDS011;43486;43.574;1.476;2023-01-30T17:49:41;8.20;;;3.50;;
54835;SDS011;43486;43.574;1.476;2023-01-30T17:52:07;10.15;;;3.72;;